PST,Max TemperatureF,Mean TemperatureF,Min TemperatureF,Max Dew PointF,MeanDew PointF,Min DewpointF,Max Humidity, Mean Humidity, Min Humidity, Max Sea Level PressureIn, Mean Sea Level PressureIn, Min Sea Level PressureIn, Max VisibilityMiles, Mean VisibilityMiles, Min VisibilityMiles, Max Wind SpeedMPH, Mean Wind SpeedMPH, Max Gust SpeedMPH,PrecipitationIn, CloudCover, Events, WindDirDegrees
2013-12-1,54,49,43,52,47,33,93,79,65,30.02,29.91,29.83,7,3,1,22,11,32,0.73,8,Rain,243
2013-12-2,47,39,31,36,32,28,92,76,60,30.06,29.95,29.87,7,4,0,12,4,15,0.11,4,Fog-Rain,332
2013-12-3,44,37,30,28,20,17,75,54,33,30.32,30.24,30.10,7,7,6,22,11,31,0.00,0,,34
2013-12-4,44,34,23,26,20,16,81,57,33,30.35,30.32,30.30,7,6,5,10,3,14,0.00,0,,54
2013-12-5,35,28,21,31,27,17,92,79,66,30.32,30.20,30.14,7,3,0,10,4,13,0.20,7,Fog-Snow,86
2013-12-6,33,29,25,26,16,8,78,62,46,30.25,30.16,30.12,7,6,5,25,13,36,T,3,Snow,57
2013-12-7,33,24,15,10,6,2,74,51,28,30.45,30.35,30.25,8,7,7,20,9,25,0.00,0,,53
2013-12-8,40,28,15,28,19,10,88,68,48,30.56,30.48,30.43,8,7,6,8,3,13,T,5,,84
2013-12-9,37,34,30,34,29,25,89,79,69,30.56,30.51,30.48,7,5,1,6,1,16,0.01,8,Snow,114
2013-12-10,42,38,34,39,35,30,92,87,82,30.48,30.43,30.38,7,4,1,8,2,15,0.02,8,Rain,85
2013-12-11,44,38,32,37,33,29,92,84,76,30.39,30.27,30.13,7,5,2,9,2,12,0.00,3,,87
2013-12-12,48,41,33,45,41,29,93,83,73,30.12,30.00,29.95,8,3,0,16,6,31,0.61,7,Fog-Rain,143
2013-12-13,49,48,46,47,45,43,93,90,86,30.41,30.29,30.11,9,2,0,13,2,16,0.06,8,Fog-Rain,178
2013-12-14,50,49,47,46,45,44,93,90,86,30.42,30.35,30.31,9,3,1,15,7,22,0.48,8,Rain,170
2013-12-15,52,46,40,49,46,39,93,88,83,30.48,30.38,30.31,4,2,0,10,4,17,0.29,8,Fog-Rain,195
2013-12-16,52,43,34,44,38,32,93,82,71,30.50,30.39,30.27,7,3,0,8,2,10,T,5,Fog-Rain,83
2013-12-17,47,40,32,44,38,30,93,90,86,30.27,30.18,30.12,6,2,0,9,2,12,0.10,6,Fog-Rain,189
2013-12-18,47,39,30,41,36,27,93,77,60,30.23,30.14,30.07,8,3,0,14,3,20,T,5,Fog-Rain,1
2013-12-19,40,37,33,33,30,26,82,76,70,30.36,30.26,30.17,8,7,5,13,5,14,T,5,,72
2013-12-20,51,44,36,48,40,30,93,85,76,30.13,29.86,29.72,7,2,0,18,8,25,0.97,8,Fog-Rain-Snow,195
2013-12-21,50,48,46,45,44,43,93,90,86,30.16,30.05,29.87,7,3,1,10,3,13,0.19,8,Rain,219
2013-12-22,51,49,47,48,46,44,93,90,86,30.29,30.23,30.14,4,1,0,10,4,16,0.58,8,Fog-Rain,175
2013-12-23,52,47,41,49,44,39,93,85,77,30.54,30.29,30.16,6,3,1,18,6,25,1.22,8,Rain,249
2013-12-24,48,41,34,44,37,34,100,93,85,30.62,30.57,30.53,7,2,0,7,2,8,0.00,7,Fog,79
2013-12-25,48,40,32,44,38,31,100,91,82,30.53,30.45,30.38,7,6,0,7,1,10,0.00,7,Fog,68
2013-12-26,52,45,37,49,43,32,100,95,89,30.39,30.29,30.19,7,4,0,7,1,9,0.00,5,Fog,106
2013-12-27,50,45,39,46,43,39,100,90,80,30.39,30.22,30.12,7,3,0,12,4,16,0.46,8,Fog-Rain,270
2013-12-28,49,43,37,43,41,36,92,85,77,30.53,30.49,30.38,7,4,0,8,2,10,T,7,Fog-Rain,149
2013-12-29,48,43,37,42,39,35,92,86,80,30.49,30.40,30.31,7,4,0,7,1,10,0.00,8,Fog,83
2013-12-30,49,45,41,43,41,39,96,88,80,30.30,30.20,30.15,7,3,0,8,2,11,0.12,7,Fog-Rain,155
2013-12-31,49,47,45,45,44,42,93,90,86,30.37,30.27,30.16,6,2,0,7,1,11,0.01,8,Fog-Rain,245